Time;durP1;ratioP1;P1;durP2;ratioP2;P2;SDS_P1;SDS_P2;PMS_P1;PMS_P2;Temp;Humidity;BMP_temperature;BMP_pressure;BME280_temperature;BME280_humidity;BME280_pressure;Samples;Min_cycle;Max_cycle;Signal;HPM_P1;HPM_P2
2022/02/25 00:00:07;;;;;;;7.10;4.13;;;2.20;99.90;;;;;;4999733;28;20091;-59
2022/02/25 00:02:33;;;;;;;10.30;5.28;;;2.30;99.90;;;;;;4999054;28;20031;-59
2022/02/25 00:04:58;;;;;;;7.07;3.55;;;2.30;99.90;;;;;;4990283;28;20034;-59
2022/02/25 00:07:24;;;;;;;9.82;4.28;;;2.20;99.90;;;;;;4994323;28;20034;-60
2022/02/25 00:09:49;;;;;;;12.50;4.13;;;2.20;99.90;;;;;;5008560;28;20447;-60
2022/02/25 00:12:15;;;;;;;9.00;3.75;;;2.20;99.90;;;;;;5010219;28;20059;-59
2022/02/25 00:14:40;;;;;;;6.97;4.57;;;2.10;99.90;;;;;;4990793;28;20105;-57
2022/02/25 00:17:06;;;;;;;7.93;4.72;;;2.10;99.90;;;;;;4994536;28;20034;-58
2022/02/25 00:19:31;;;;;;;7.32;4.65;;;2.00;99.90;;;;;;4997446;28;20120;-59
2022/02/25 00:21:57;;;;;;;10.93;4.93;;;1.90;99.90;;;;;;4996328;28;20065;-58
2022/02/25 00:24:22;;;;;;;8.70;4.90;;;1.80;99.90;;;;;;5009773;28;20443;-60
2022/02/25 00:26:48;;;;;;;9.68;4.72;;;1.80;99.90;;;;;;5007048;28;20554;-59
2022/02/25 00:29:13;;;;;;;9.48;4.78;;;1.70;99.90;;;;;;5010109;28;20030;-60
2022/02/25 00:31:39;;;;;;;10.43;5.63;;;1.60;99.90;;;;;;5011264;28;20044;-58
2022/02/25 00:34:04;;;;;;;9.60;5.55;;;1.60;99.90;;;;;;5011002;28;20048;-58
2022/02/25 00:36:30;;;;;;;12.45;5.90;;;1.50;99.90;;;;;;4999478;28;20071;-60
2022/02/25 00:38:55;;;;;;;16.38;5.97;;;1.40;99.90;;;;;;4993878;28;20496;-59
2022/02/25 00:41:21;;;;;;;16.27;6.80;;;1.30;99.90;;;;;;4993771;28;20030;-59
2022/02/25 00:43:46;;;;;;;9.30;5.63;;;1.30;99.90;;;;;;4995723;28;20098;-57
2022/02/25 00:46:12;;;;;;;14.07;6.30;;;1.20;99.90;;;;;;5000535;28;20025;-58
2022/02/25 00:48:38;;;;;;;11.23;6.07;;;1.20;99.90;;;;;;5011593;28;20042;-59
2022/02/25 00:51:03;;;;;;;14.82;7.00;;;1.20;99.90;;;;;;4997246;28;20033;-59
2022/02/25 00:53:29;;;;;;;11.13;6.07;;;1.10;99.90;;;;;;5005928;28;20095;-59
2022/02/25 00:55:54;;;;;;;17.10;6.72;;;1.20;99.90;;;;;;5002674;28;20026;-59
2022/02/25 00:58:21;;;;;;;15.45;7.22;;;1.20;99.90;;;;;;4994037;28;20022;-58
2022/02/25 01:00:46;;;;;;;11.35;6.32;;;1.20;99.90;;;;;;4994949;28;20041;-59
2022/02/25 01:03:12;;;;;;;11.93;6.15;;;1.20;99.90;;;;;;5011376;28;20029;-60
2022/02/25 01:05:38;;;;;;;14.85;6.25;;;1.10;99.90;;;;;;5011516;28;20380;-60
2022/02/25 01:08:05;;;;;;;14.50;5.93;;;1.10;99.90;;;;;;5011569;28;20025;-60
2022/02/25 01:10:32;;;;;;;13.45;6.53;;;1.00;99.90;;;;;;4993966;28;20026;-59
2022/02/25 01:12:57;;;;;;;16.88;6.30;;;0.90;99.90;;;;;;5003222;28;20026;-60
2022/02/25 01:15:23;;;;;;;13.95;5.57;;;0.90;99.90;;;;;;5009419;28;20026;-60
2022/02/25 01:17:49;;;;;;;14.02;5.35;;;0.80;99.90;;;;;;4997931;28;20113;-58
2022/02/25 01:20:15;;;;;;;13.30;4.75;;;0.80;99.90;;;;;;4996948;28;20077;-60
2022/02/25 01:22:41;;;;;;;12.00;4.38;;;0.70;99.90;;;;;;4992245;28;20057;-56
2022/02/25 01:25:07;;;;;;;12.68;4.90;;;0.70;99.90;;;;;;4992674;28;20507;-59
2022/02/25 01:27:33;;;;;;;16.88;4.00;;;0.80;99.90;;;;;;4992621;28;20030;-60
2022/02/25 01:29:58;;;;;;;9.60;3.88;;;0.70;99.90;;;;;;4997040;28;20058;-59
2022/02/25 01:32:24;;;;;;;15.02;3.58;;;0.80;99.90;;;;;;5009688;28;20038;-60
2022/02/25 01:34:49;;;;;;;13.88;3.53;;;0.80;99.90;;;;;;4995008;28;20033;-59
2022/02/25 01:37:15;;;;;;;11.77;3.67;;;0.90;99.90;;;;;;5008735;28;20026;-60
2022/02/25 01:39:41;;;;;;;10.80;2.97;;;1.00;99.90;;;;;;5011215;28;20033;-59
2022/02/25 01:42:07;;;;;;;10.70;3.78;;;1.00;99.90;;;;;;5001560;28;20041;-59
2022/02/25 01:44:37;;;;;;;18.92;3.75;;;1.10;99.90;;;;;;5003273;28;20030;-60
2022/02/25 01:47:03;;;;;;;14.88;3.47;;;1.20;99.90;;;;;;4993396;28;20585;-58
2022/02/25 01:49:30;;;;;;;8.93;3.10;;;1.30;99.90;;;;;;4998549;28;20037;-58
2022/02/25 01:52:15;;;;;;;12.10;2.78;;;1.40;99.90;;;;;;5007836;28;20105;-60
2022/02/25 01:54:46;;;;;;;7.15;2.97;;;1.40;99.90;;;;;;5008298;28;20108;-59
2022/02/25 01:57:14;;;;;;;13.25;3.03;;;1.40;99.90;;;;;;5021510;28;20384;-60
2022/02/25 01:59:41;;;;;;;10.05;3.10;;;1.50;99.90;;;;;;5010806;28;20033;-59
2022/02/25 02:02:08;;;;;;;14.68;3.13;;;1.60;99.90;;;;;;4995922;28;20300;-58
2022/02/25 02:04:35;;;;;;;10.68;2.72;;;1.60;99.90;;;;;;5011352;28;20550;-60
2022/02/25 02:07:00;;;;;;;14.82;3.83;;;1.70;99.90;;;;;;5008305;28;20460;-60
2022/02/25 02:09:26;;;;;;;12.73;2.92;;;1.70;99.90;;;;;;4997129;28;20023;-59
2022/02/25 02:11:53;;;;;;;8.18;2.75;;;1.60;99.90;;;;;;5005018;28;20056;-57
2022/02/25 02:14:21;;;;;;;13.13;2.78;;;1.60;99.90;;;;;;5003509;28;20034;-59
2022/02/25 02:16:49;;;;;;;9.10;2.58;;;1.60;99.90;;;;;;5005469;28;20072;-56
2022/02/25 02:19:16;;;;;;;9.63;2.15;;;1.60;99.90;;;;;;5002010;28;20053;-58
2022/02/25 02:21:50;;;;;;;13.80;2.22;;;1.50;99.90;;;;;;5014801;28;20064;-58
2022/02/25 02:24:17;;;;;;;15.48;1.98;;;1.40;99.90;;;;;;4996878;28;20383;-59
2022/02/25 02:26:44;;;;;;;16.58;2.22;;;1.40;99.90;;;;;;5003651;28;20022;-55
2022/02/25 02:29:11;;;;;;;7.63;1.67;;;1.40;99.90;;;;;;5011542;28;20030;-59
2022/02/25 02:31:37;;;;;;;10.57;2.42;;;1.30;99.90;;;;;;5011624;28;20034;-59
2022/02/25 02:34:04;;;;;;;10.32;2.80;;;1.20;99.90;;;;;;4991698;28;20045;-59
2022/02/25 02:36:29;;;;;;;6.07;2.13;;;1.10;99.90;;;;;;4992234;28;20165;-58
2022/02/25 02:38:55;;;;;;;7.32;2.42;;;1.10;99.90;;;;;;4991028;28;20466;-60
2022/02/25 02:41:21;;;;;;;10.25;2.10;;;1.00;99.90;;;;;;4997975;28;20042;-60
2022/02/25 02:43:47;;;;;;;14.90;2.05;;;1.00;99.90;;;;;;5011054;28;20380;-59
2022/02/25 02:46:13;;;;;;;14.70;4.32;;;1.00;99.90;;;;;;5010684;28;20049;-59
2022/02/25 02:48:39;;;;;;;5.30;1.98;;;1.00;99.90;;;;;;5004196;28;20029;-59
2022/02/25 02:51:05;;;;;;;8.70;1.90;;;1.00;99.90;;;;;;5009398;28;20097;-59
2022/02/25 02:53:31;;;;;;;10.55;2.13;;;1.00;99.90;;;;;;4993693;28;20511;-59
2022/02/25 02:55:56;;;;;;;16.02;2.65;;;1.00;99.90;;;;;;4989640;28;20411;-59
2022/02/25 02:58:22;;;;;;;10.65;1.85;;;1.10;99.90;;;;;;5004344;28;20033;-59
2022/02/25 03:00:50;;;;;;;8.45;1.65;;;1.00;99.90;;;;;;4998780;28;20603;-59
2022/02/25 03:03:16;;;;;;;12.80;2.85;;;0.90;99.90;;;;;;5006025;28;20072;-58
2022/02/25 03:05:42;;;;;;;11.75;2.10;;;0.90;99.90;;;;;;5002448;28;20053;-59
2022/02/25 03:08:08;;;;;;;11.18;1.98;;;0.80;99.90;;;;;;4997323;28;20101;-59
2022/02/25 03:10:35;;;;;;;13.48;2.47;;;0.90;99.90;;;;;;5007703;28;20039;-60
2022/02/25 03:13:01;;;;;;;6.63;2.10;;;0.90;99.90;;;;;;4986140;28;20404;-60
2022/02/25 03:15:27;;;;;;;17.20;2.30;;;0.90;99.90;;;;;;5001060;28;20526;-58
2022/02/25 03:17:52;;;;;;;9.40;2.00;;;0.80;99.90;;;;;;4993190;28;20041;-60
2022/02/25 03:20:18;;;;;;;15.70;1.98;;;0.80;99.90;;;;;;4988739;28;20129;-59
2022/02/25 03:22:44;;;;;;;7.22;1.80;;;0.80;99.90;;;;;;4995583;28;20120;-57
2022/02/25 03:25:13;;;;;;;12.77;2.78;;;0.80;99.90;;;;;;5005340;28;20029;-60
2022/02/25 03:27:39;;;;;;;12.45;2.90;;;0.70;99.90;;;;;;5010645;28;20057;-59
2022/02/25 03:30:06;;;;;;;12.75;1.80;;;0.70;99.90;;;;;;5010588;28;20026;-59
2022/02/25 03:32:31;;;;;;;18.90;1.95;;;0.70;99.90;;;;;;4997983;28;20511;-60
2022/02/25 03:34:57;;;;;;;10.30;2.15;;;0.70;99.90;;;;;;4990389;28;20062;-60
2022/02/25 03:37:23;;;;;;;9.80;1.65;;;0.60;99.90;;;;;;4990797;28;20034;-60
2022/02/25 03:39:48;;;;;;;15.27;2.30;;;0.60;99.90;;;;;;4990255;28;20057;-58
2022/02/25 03:42:14;;;;;;;9.68;1.70;;;0.50;99.90;;;;;;4997124;28;20443;-59
2022/02/25 03:44:41;;;;;;;7.63;1.65;;;0.60;99.90;;;;;;4996020;28;20236;-59
2022/02/25 03:47:07;;;;;;;8.68;2.00;;;0.50;99.90;;;;;;4987905;28;20096;-60
2022/02/25 03:49:33;;;;;;;11.20;2.05;;;0.50;99.90;;;;;;5007723;28;20109;-60
2022/02/25 03:51:58;;;;;;;11.48;1.77;;;0.50;99.90;;;;;;5005999;28;20466;-59
2022/02/25 03:54:24;;;;;;;12.32;2.17;;;0.50;99.90;;;;;;5009475;28;20034;-59
2022/02/25 03:56:49;;;;;;;11.25;1.40;;;0.50;99.90;;;;;;5007856;28;20030;-60
2022/02/25 03:59:15;;;;;;;14.30;1.55;;;0.40;99.90;;;;;;5009294;28;20101;-57
2022/02/25 04:01:41;;;;;;;7.78;1.30;;;0.40;99.90;;;;;;5004644;28;20069;-60
2022/02/25 04:04:06;;;;;;;7.20;1.63;;;0.40;99.90;;;;;;4994516;28;20045;-60
2022/02/25 04:06:33;;;;;;;15.50;2.45;;;0.30;99.90;;;;;;4994323;28;20035;-57
2022/02/25 04:08:59;;;;;;;5.45;1.27;;;0.40;99.90;;;;;;5000634;28;20080;-58
2022/02/25 04:11:25;;;;;;;8.35;1.85;;;0.40;99.90;;;;;;5009754;28;20026;-58
2022/02/25 04:13:53;;;;;;;15.55;2.67;;;0.30;99.90;;;;;;4999534;28;20033;-60
2022/02/25 04:16:19;;;;;;;7.97;1.58;;;0.30;99.90;;;;;;5005874;28;20034;-59
2022/02/25 04:18:44;;;;;;;7.60;1.83;;;0.20;99.90;;;;;;5003137;28;20550;-60
2022/02/25 04:21:10;;;;;;;9.90;1.67;;;0.20;99.90;;;;;;4997846;28;20058;-58
2022/02/25 04:23:35;;;;;;;6.57;1.77;;;0.10;99.90;;;;;;5006087;28;20053;-59
2022/02/25 04:26:01;;;;;;;7.32;1.65;;;0.10;99.90;;;;;;5012036;28;20045;-60
2022/02/25 04:28:27;;;;;;;10.43;2.22;;;0.00;99.90;;;;;;5007187;28;20153;-57
2022/02/25 04:30:53;;;;;;;9.15;2.10;;;0.00;99.90;;;;;;5018803;28;20093;-60
2022/02/25 04:33:18;;;;;;;6.45;1.55;;;0.00;99.90;;;;;;5018792;28;20439;-56
2022/02/25 04:35:44;;;;;;;15.90;2.53;;;-0.10;99.90;;;;;;4998586;28;20037;-60
2022/02/25 04:38:10;;;;;;;13.57;1.70;;;-0.10;99.90;;;;;;5004386;28;20038;-59
2022/02/25 04:40:36;;;;;;;8.43;1.93;;;-0.20;99.90;;;;;;5003384;28;20418;-60
2022/02/25 04:43:03;;;;;;;8.27;1.58;;;-0.20;99.90;;;;;;5001494;28;20026;-59
2022/02/25 04:45:28;;;;;;;13.35;2.42;;;-0.20;99.90;;;;;;4994250;28;20035;-60
2022/02/25 04:47:57;;;;;;;8.33;1.77;;;-0.20;99.90;;;;;;4994015;28;20031;-59
2022/02/25 04:50:23;;;;;;;9.77;1.67;;;-0.30;99.90;;;;;;5005380;28;20022;-59
2022/02/25 04:52:50;;;;;;;11.93;2.33;;;-0.20;99.90;;;;;;4998863;28;20084;-59
2022/02/25 04:55:19;;;;;;;11.05;1.58;;;-0.30;99.90;;;;;;5006904;28;20571;-60
2022/02/25 04:57:45;;;;;;;12.85;1.90;;;-0.30;99.90;;;;;;5004754;28;20459;-60
2022/02/25 05:00:13;;;;;;;6.90;1.77;;;-0.30;99.90;;;;;;5000148;28;20045;-60
2022/02/25 05:02:43;;;;;;;5.53;1.37;;;-0.40;99.90;;;;;;4998014;28;20042;-60
2022/02/25 05:05:09;;;;;;;18.70;2.40;;;-0.40;99.90;;;;;;5010403;28;20064;-60
2022/02/25 05:07:35;;;;;;;7.80;1.97;;;-0.40;99.90;;;;;;5005421;28;20033;-60
2022/02/25 05:10:00;;;;;;;14.73;1.50;;;-0.40;99.90;;;;;;4992567;28;20038;-59
2022/02/25 05:12:26;;;;;;;14.20;2.33;;;-0.30;99.90;;;;;;5004232;28;20070;-60
2022/02/25 05:20:26;;;;;;;18.63;3.70;;;-0.30;99.90;;;;;;5009623;28;20040;-60
2022/02/25 05:22:53;;;;;;;8.87;2.13;;;-0.30;99.90;;;;;;5008744;28;20022;-60
2022/02/25 05:25:20;;;;;;;14.17;2.17;;;-0.30;99.90;;;;;;5007661;28;20483;-61
2022/02/25 05:27:45;;;;;;;15.30;2.50;;;-0.30;99.90;;;;;;5010627;28;20040;-60
2022/02/25 05:30:12;;;;;;;14.55;2.83;;;-0.30;99.90;;;;;;4993319;28;20089;-60
2022/02/25 05:32:38;;;;;;;13.13;2.10;;;-0.30;99.90;;;;;;4991450;28;20034;-56
2022/02/25 05:35:04;;;;;;;10.95;1.80;;;-0.30;99.90;;;;;;4992202;28;20033;-60
2022/02/25 05:37:29;;;;;;;10.23;2.93;;;-0.30;99.90;;;;;;4994943;28;20038;-60
2022/02/25 05:39:55;;;;;;;15.97;3.30;;;-0.30;99.90;;;;;;5005573;28;20081;-60
2022/02/25 05:42:21;;;;;;;5.60;1.38;;;-0.30;99.90;;;;;;4995319;28;20034;-60
2022/02/25 05:44:47;;;;;;;8.13;1.60;;;-0.30;99.90;;;;;;5002472;28;20026;-60
2022/02/25 05:47:13;;;;;;;10.90;1.90;;;-0.20;99.90;;;;;;5010095;28;20061;-59
2022/02/25 05:49:39;;;;;;;11.37;1.77;;;-0.20;99.90;;;;;;5006297;28;20099;-60
2022/02/25 05:52:04;;;;;;;10.25;1.77;;;-0.20;99.90;;;;;;5009231;28;20033;-59
2022/02/25 05:54:30;;;;;;;13.43;1.93;;;-0.30;99.90;;;;;;5003271;28;20415;-57
2022/02/25 05:56:55;;;;;;;18.60;2.50;;;-0.20;99.90;;;;;;5005047;28;20026;-60
2022/02/25 05:59:21;;;;;;;15.07;1.50;;;-0.20;99.90;;;;;;4998275;28;20027;-59
2022/02/25 06:01:46;;;;;;;26.13;5.77;;;-0.20;99.90;;;;;;4996301;28;20113;-60
2022/02/25 06:04:12;;;;;;;92.17;28.50;;;-0.20;99.90;;;;;;5004313;28;20152;-59
2022/02/25 06:06:37;;;;;;;38.70;14.75;;;-0.20;99.90;;;;;;5006346;28;20065;-57
2022/02/25 06:09:03;;;;;;;54.93;18.53;;;-0.20;99.90;;;;;;5003397;28;20115;-60
2022/02/25 06:11:29;;;;;;;168.57;64.95;;;-0.20;99.90;;;;;;4993436;28;20117;-59
2022/02/25 06:13:54;;;;;;;70.53;29.13;;;-0.20;99.90;;;;;;4995651;28;20026;-57
2022/02/25 06:16:20;;;;;;;70.97;27.77;;;-0.30;99.90;;;;;;4997673;28;20070;-60
2022/02/25 06:18:45;;;;;;;26.50;12.48;;;-0.30;99.90;;;;;;4994271;28;20026;-60
2022/02/25 06:21:11;;;;;;;26.37;5.50;;;-0.30;99.90;;;;;;4995276;28;20045;-59
2022/02/25 06:23:36;;;;;;;18.38;3.92;;;-0.30;99.90;;;;;;4997581;28;20038;-60
2022/02/25 06:26:02;;;;;;;17.13;5.15;;;-0.30;99.90;;;;;;4992537;28;20084;-59
2022/02/25 06:28:30;;;;;;;14.93;5.40;;;-0.30;99.90;;;;;;4998692;28;20523;-56
2022/02/25 06:30:56;;;;;;;11.60;3.08;;;-0.30;99.90;;;;;;4995555;28;20519;-59
2022/02/25 06:33:21;;;;;;;9.30;2.90;;;-0.30;99.90;;;;;;4996831;28;20034;-59
2022/02/25 06:35:48;;;;;;;8.65;2.35;;;-0.30;99.90;;;;;;4998605;28;20990;-60
2022/02/25 06:38:13;;;;;;;12.48;2.75;;;-0.20;99.90;;;;;;5006313;28;20034;-59
2022/02/25 06:40:39;;;;;;;12.05;2.40;;;-0.20;99.90;;;;;;4999930;28;20668;-59
2022/02/25 06:43:04;;;;;;;23.92;2.67;;;-0.10;99.90;;;;;;5005221;28;20542;-57
2022/02/25 06:45:30;;;;;;;15.65;2.90;;;-0.10;99.90;;;;;;5004199;28;20042;-59
2022/02/25 06:47:55;;;;;;;9.25;2.25;;;-0.10;99.90;;;;;;5008717;28;20112;-58
2022/02/25 06:50:21;;;;;;;15.60;2.78;;;0.00;99.90;;;;;;4997543;28;20030;-59
2022/02/25 06:52:46;;;;;;;10.48;2.45;;;0.10;99.90;;;;;;4995409;28;20038;-60
2022/02/25 06:55:14;;;;;;;18.35;2.00;;;0.20;99.90;;;;;;4982403;28;20061;-58
2022/02/25 06:57:41;;;;;;;16.88;2.78;;;0.30;99.90;;;;;;5008125;28;20066;-56
2022/02/25 07:00:07;;;;;;;12.13;1.85;;;0.50;99.90;;;;;;5005454;28;20554;-59
2022/02/25 07:02:33;;;;;;;13.63;2.20;;;0.60;99.90;;;;;;5012764;28;20121;-59
2022/02/25 07:04:59;;;;;;;10.95;3.20;;;0.80;99.90;;;;;;5023045;28;20480;-57
2022/02/25 07:07:24;;;;;;;13.40;2.20;;;0.90;99.90;;;;;;4996242;28;20511;-59
2022/02/25 07:09:50;;;;;;;15.70;2.65;;;1.20;99.90;;;;;;4999861;28;20034;-58
2022/02/25 07:12:15;;;;;;;83.85;19.75;;;1.40;99.90;;;;;;5002489;28;20079;-59
2022/02/25 07:14:41;;;;;;;97.03;33.85;;;1.60;99.90;;;;;;5002132;28;20057;-59
2022/02/25 07:17:06;;;;;;;84.95;49.60;;;1.80;99.90;;;;;;5004253;28;20131;-59
2022/02/25 07:19:33;;;;;;;128.45;47.75;;;1.90;99.90;;;;;;5000622;28;20183;-59
2022/02/25 07:21:58;;;;;;;77.47;23.80;;;2.00;99.90;;;;;;5003679;28;20042;-60
2022/02/25 07:24:24;;;;;;;82.47;22.95;;;2.10;99.90;;;;;;4997877;28;20034;-58
2022/02/25 07:26:49;;;;;;;51.60;14.27;;;2.10;99.90;;;;;;4994271;28;20484;-60
2022/02/25 07:29:15;;;;;;;31.77;10.45;;;2.10;99.90;;;;;;4998840;28;20365;-60
2022/02/25 07:31:40;;;;;;;28.48;8.13;;;2.00;99.90;;;;;;4997425;28;20511;-60
2022/02/25 07:34:06;;;;;;;52.92;21.83;;;2.10;99.90;;;;;;4992249;28;20038;-60
2022/02/25 07:36:33;;;;;;;99.88;31.40;;;2.00;99.90;;;;;;5003691;28;20467;-60
2022/02/25 07:38:59;;;;;;;354.38;90.40;;;2.00;99.90;;;;;;5000911;28;20022;-61
2022/02/25 07:41:25;;;;;;;326.38;78.38;;;2.00;99.90;;;;;;5003450;28;20030;-59
2022/02/25 07:43:50;;;;;;;199.27;51.72;;;2.00;99.90;;;;;;4996807;28;20060;-60
2022/02/25 07:46:16;;;;;;;136.70;34.65;;;2.20;99.90;;;;;;5002836;28;20041;-60
2022/02/25 07:48:43;;;;;;;84.68;27.77;;;2.40;99.90;;;;;;5000251;28;20022;-60
2022/02/25 07:51:09;;;;;;;43.40;11.57;;;2.50;99.90;;;;;;5003434;28;20508;-60
2022/02/25 07:53:34;;;;;;;17.70;3.88;;;2.60;99.90;;;;;;5004178;28;20041;-60
2022/02/25 07:56:01;;;;;;;13.38;2.75;;;2.70;99.90;;;;;;4979570;28;20131;-58
2022/02/25 07:58:27;;;;;;;12.32;2.40;;;2.80;99.90;;;;;;5001865;28;20558;-60
2022/02/25 08:00:52;;;;;;;21.35;4.43;;;2.80;99.90;;;;;;4989543;28;20042;-60
2022/02/25 08:03:18;;;;;;;19.60;6.55;;;2.90;99.90;;;;;;4998865;28;20042;-60
2022/02/25 08:05:44;;;;;;;18.58;4.65;;;2.90;99.90;;;;;;5007704;28;20113;-60
2022/02/25 08:08:09;;;;;;;17.75;3.10;;;2.90;99.90;;;;;;5004141;28;20402;-60
2022/02/25 08:10:36;;;;;;;11.50;1.95;;;2.90;99.90;;;;;;5004122;28;20450;-57
2022/02/25 08:13:04;;;;;;;14.10;2.58;;;2.90;99.90;;;;;;4998081;28;20113;-59
2022/02/25 08:15:33;;;;;;;15.02;3.05;;;3.00;99.90;;;;;;5004284;28;20115;-60
2022/02/25 08:17:59;;;;;;;11.88;1.88;;;3.00;99.90;;;;;;5003098;28;20649;-60
2022/02/25 08:20:25;;;;;;;11.88;1.90;;;3.00;99.90;;;;;;5001638;28;20073;-60
2022/02/25 08:22:51;;;;;;;9.45;1.60;;;3.10;99.90;;;;;;5006512;28;20052;-61
2022/02/25 08:25:16;;;;;;;10.05;1.75;;;3.20;99.90;;;;;;5005634;28;20034;-60
2022/02/25 08:27:43;;;;;;;17.60;2.92;;;3.20;99.90;;;;;;4997667;28;20030;-60
2022/02/25 08:30:14;;;;;;;9.50;1.75;;;3.20;99.90;;;;;;4994802;28;20472;-60
2022/02/25 08:32:46;;;;;;;19.90;2.45;;;3.30;99.90;;;;;;5001976;28;20026;-59
2022/02/25 08:35:12;;;;;;;17.60;2.22;;;3.40;99.90;;;;;;4996634;28;20030;-60
2022/02/25 08:37:38;;;;;;;19.50;4.25;;;3.40;99.90;;;;;;5007709;28;20603;-59
2022/02/25 08:40:05;;;;;;;26.45;7.97;;;3.40;99.90;;;;;;5006952;28;20037;-59
2022/02/25 08:42:32;;;;;;;32.35;10.48;;;3.50;99.90;;;;;;5009188;28;20038;-60
2022/02/25 08:44:58;;;;;;;26.25;8.57;;;3.60;99.90;;;;;;5011461;28;20026;-60
2022/02/25 08:47:23;;;;;;;27.33;6.72;;;3.60;99.90;;;;;;5002021;28;20061;-60
2022/02/25 08:49:49;;;;;;;24.63;5.82;;;3.60;99.90;;;;;;4995823;28;20022;-57
2022/02/25 08:52:15;;;;;;;15.55;4.20;;;3.60;99.90;;;;;;4997803;28;20045;-59
2022/02/25 08:54:41;;;;;;;21.83;7.45;;;3.50;99.90;;;;;;5011113;28;20107;-61
2022/02/25 08:57:06;;;;;;;27.95;6.88;;;3.50;99.90;;;;;;5011867;28;20117;-61
2022/02/25 08:59:33;;;;;;;28.95;7.15;;;3.50;99.90;;;;;;5000343;28;20117;-59
2022/02/25 09:01:59;;;;;;;17.55;4.43;;;3.50;99.90;;;;;;5006027;28;20042;-61
2022/02/25 09:04:24;;;;;;;9.57;2.22;;;3.50;99.90;;;;;;4995774;28;20042;-60
2022/02/25 09:06:50;;;;;;;15.30;3.65;;;3.50;99.90;;;;;;5005540;28;20447;-60
2022/02/25 09:09:16;;;;;;;22.70;3.40;;;3.50;99.90;;;;;;4996723;28;20034;-58
2022/02/25 09:11:42;;;;;;;15.10;4.18;;;3.60;99.90;;;;;;5002822;28;20052;-59
2022/02/25 09:14:07;;;;;;;15.43;4.05;;;3.60;99.90;;;;;;5004293;28;20427;-60
2022/02/25 09:16:33;;;;;;;23.73;7.65;;;3.70;99.90;;;;;;5001888;28;20034;-60
2022/02/25 09:18:59;;;;;;;21.15;4.10;;;3.70;99.90;;;;;;5010975;28;20092;-60
2022/02/25 09:21:25;;;;;;;27.60;4.85;;;3.70;99.90;;;;;;5000420;28;20494;-60
2022/02/25 09:23:51;;;;;;;64.28;22.25;;;3.60;99.90;;;;;;5004491;28;20026;-60
2022/02/25 09:26:17;;;;;;;24.65;9.98;;;3.70;99.90;;;;;;4996755;28;20058;-60
2022/02/25 09:28:43;;;;;;;195.10;50.45;;;3.70;99.90;;;;;;5009636;28;20690;-60
2022/02/25 09:31:08;;;;;;;46.20;10.68;;;3.80;99.90;;;;;;5025377;28;20018;-60
2022/02/25 09:33:35;;;;;;;33.35;8.90;;;3.90;99.90;;;;;;5002165;28;20041;-59
2022/02/25 09:36:00;;;;;;;16.52;4.47;;;3.90;99.90;;;;;;4979902;28;20038;-60
2022/02/25 09:38:26;;;;;;;19.50;5.25;;;4.00;99.90;;;;;;5014132;28;20507;-60
2022/02/25 09:40:52;;;;;;;13.18;3.83;;;3.90;99.90;;;;;;4999636;28;20148;-59
2022/02/25 09:43:18;;;;;;;13.55;6.35;;;4.00;99.90;;;;;;5005607;28;20030;-60
2022/02/25 09:45:43;;;;;;;10.88;3.85;;;4.00;99.90;;;;;;5006080;28;20057;-60
2022/02/25 09:48:11;;;;;;;22.13;4.68;;;4.10;99.90;;;;;;5002710;28;20022;-58
2022/02/25 09:50:38;;;;;;;20.83;3.85;;;4.10;99.90;;;;;;5003863;28;20018;-58
2022/02/25 09:53:04;;;;;;;21.08;4.97;;;4.20;99.90;;;;;;5005223;28;20500;-60
2022/02/25 09:55:31;;;;;;;18.77;4.28;;;4.20;99.90;;;;;;4985978;28;20060;-60
2022/02/25 09:58:00;;;;;;;29.08;6.55;;;4.30;99.90;;;;;;4997255;28;20042;-60
2022/02/25 10:00:26;;;;;;;12.57;3.13;;;4.40;99.90;;;;;;4981084;28;20057;-60
2022/02/25 10:02:55;;;;;;;18.20;4.13;;;4.40;99.90;;;;;;5005002;28;20429;-60
2022/02/25 10:05:23;;;;;;;18.60;3.22;;;4.40;99.90;;;;;;5005162;28;20058;-59
2022/02/25 10:07:49;;;;;;;20.30;3.92;;;4.50;99.90;;;;;;5010230;28;20026;-59
2022/02/25 10:10:17;;;;;;;26.40;5.57;;;4.60;99.90;;;;;;5001906;28;20133;-59
2022/02/25 10:12:55;;;;;;;19.23;4.55;;;4.70;99.90;;;;;;5008952;28;20037;-58
2022/02/25 10:15:32;;;;;;;23.30;6.35;;;4.80;99.90;;;;;;5011272;28;20091;-58
2022/02/25 10:18:00;;;;;;;67.13;23.92;;;5.00;99.90;;;;;;5000164;28;20113;-60
2022/02/25 10:20:26;;;;;;;90.05;36.45;;;5.10;99.90;;;;;;5008298;28;20499;-60
2022/02/25 10:22:52;;;;;;;23.77;5.88;;;5.30;99.90;;;;;;5008771;28;20029;-60
2022/02/25 10:25:21;;;;;;;14.63;3.35;;;5.70;99.90;;;;;;5006110;28;20034;-60
2022/02/25 10:27:47;;;;;;;13.35;2.70;;;5.90;99.90;;;;;;5004756;28;20033;-60
2022/02/25 10:30:13;;;;;;;18.23;2.88;;;5.90;99.90;;;;;;4995862;28;20030;-59
2022/02/25 10:32:43;;;;;;;11.82;3.22;;;5.90;99.90;;;;;;5003715;28;20030;-60
2022/02/25 10:35:24;;;;;;;10.90;3.22;;;5.80;99.90;;;;;;4998132;28;20025;-60
2022/02/25 10:37:59;;;;;;;13.13;2.95;;;5.70;99.90;;;;;;5003746;28;20033;-60
2022/02/25 10:40:26;;;;;;;16.52;3.13;;;5.60;99.90;;;;;;5005714;28;20140;-60
2022/02/25 10:42:52;;;;;;;19.08;3.10;;;5.40;99.90;;;;;;4998145;28;20084;-59
2022/02/25 10:45:33;;;;;;;16.83;3.13;;;5.40;99.90;;;;;;4997042;28;20387;-59
2022/02/25 10:48:00;;;;;;;17.38;3.25;;;5.40;99.90;;;;;;5000655;28;20531;-58
2022/02/25 10:50:27;;;;;;;21.20;2.90;;;5.50;99.90;;;;;;5004008;28;20022;-60
2022/02/25 10:52:54;;;;;;;21.88;3.72;;;5.50;99.90;;;;;;5002623;28;20030;-60
2022/02/25 10:55:22;;;;;;;17.92;4.45;;;5.60;99.90;;;;;;5006528;28;20022;-58
2022/02/25 10:57:50;;;;;;;15.85;4.28;;;5.80;99.90;;;;;;4969845;28;20050;-59
2022/02/25 11:00:17;;;;;;;22.02;4.57;;;6.20;99.90;;;;;;5000880;28;20401;-59
2022/02/25 11:02:48;;;;;;;21.77;4.47;;;6.60;99.90;;;;;;5002260;28;20030;-60
2022/02/25 11:05:23;;;;;;;17.45;3.67;;;6.90;99.90;;;;;;4996528;28;20076;-59
2022/02/25 11:07:54;;;;;;;21.90;3.60;;;7.00;99.90;;;;;;4999504;28;20075;-60
2022/02/25 11:10:22;;;;;;;17.58;3.60;;;6.90;99.90;;;;;;4995229;28;20038;-60
2022/02/25 11:12:49;;;;;;;15.20;3.38;;;6.70;99.90;;;;;;4993371;28;20072;-60
2022/02/25 11:15:18;;;;;;;18.83;4.18;;;6.50;99.90;;;;;;4996663;28;20033;-59
2022/02/25 11:17:45;;;;;;;19.23;3.78;;;6.40;99.90;;;;;;5002975;28;20034;-59
2022/02/25 11:20:12;;;;;;;9.65;2.30;;;6.30;99.90;;;;;;4998979;28;20056;-59
2022/02/25 11:22:40;;;;;;;17.33;3.50;;;5.90;99.90;;;;;;4998118;28;20040;-58
2022/02/25 11:25:12;;;;;;;25.55;4.18;;;5.80;99.90;;;;;;5010173;28;20085;-60
2022/02/25 11:27:38;;;;;;;21.90;4.53;;;5.90;99.90;;;;;;5009389;28;20375;-58
2022/02/25 11:30:20;;;;;;;19.67;3.90;;;5.90;99.90;;;;;;5010085;28;20022;-60
2022/02/25 11:32:59;;;;;;;17.23;3.67;;;5.90;99.90;;;;;;4997265;28;20057;-59
2022/02/25 11:35:28;;;;;;;19.10;2.70;;;5.90;99.90;;;;;;5012642;28;20029;-59
2022/02/25 11:38:03;;;;;;;25.40;4.72;;;5.90;99.90;;;;;;5008350;28;20021;-59
2022/02/25 11:41:02;;;;;;;17.75;4.45;;;6.00;99.90;;;;;;5004778;28;20813;-60
2022/02/25 11:43:46;;;;;;;9.85;2.42;;;6.10;99.90;;;;;;5008392;28;20877;-59
2022/02/25 11:46:22;;;;;;;10.85;2.70;;;6.10;99.90;;;;;;4998321;28;20081;-60
2022/02/25 11:48:51;;;;;;;14.40;2.88;;;6.20;99.90;;;;;;4999884;28;20030;-60
2022/02/25 11:51:32;;;;;;;17.88;3.53;;;6.20;99.90;;;;;;4990502;28;20024;-60
2022/02/25 11:54:33;;;;;;;16.90;2.75;;;6.20;99.90;;;;;;4982532;28;20445;-62
2022/02/25 11:57:05;;;;;;;19.02;3.17;;;6.30;99.90;;;;;;4988760;28;20100;-61
2022/02/25 11:59:33;;;;;;;18.95;2.90;;;6.40;99.90;;;;;;5012224;28;20105;-61
2022/02/25 12:02:20;;;;;;;14.52;2.53;;;6.40;99.90;;;;;;5008902;28;20037;-62
2022/02/25 12:05:10;;;;;;;17.67;2.55;;;6.40;99.90;;;;;;5007156;28;20053;-61
2022/02/25 12:07:41;;;;;;;13.95;3.08;;;6.30;99.90;;;;;;4994363;28;20038;-62
2022/02/25 12:10:12;;;;;;;16.88;4.07;;;6.20;99.90;;;;;;5009920;28;20018;-62
2022/02/25 12:12:39;;;;;;;16.17;3.85;;;6.10;99.90;;;;;;5009493;28;20030;-62
2022/02/25 12:15:17;;;;;;;19.00;4.57;;;5.90;99.90;;;;;;4998429;28;20930;-62
2022/02/25 12:17:46;;;;;;;19.40;3.60;;;5.80;99.90;;;;;;5008638;28;20416;-62
2022/02/25 12:20:25;;;;;;;20.65;3.65;;;5.80;99.90;;;;;;5009569;28;20490;-62
2022/02/25 12:23:09;;;;;;;24.50;4.03;;;5.90;99.90;;;;;;5000462;28;20085;-61
2022/02/25 12:25:41;;;;;;;20.88;3.75;;;5.90;99.90;;;;;;5007005;28;20437;-62
2022/02/25 12:28:26;;;;;;;12.95;2.47;;;6.10;99.90;;;;;;5004261;28;20138;-62
2022/02/25 12:31:16;;;;;;;16.23;5.13;;;6.30;99.90;;;;;;5006449;28;20026;-62
2022/02/25 12:33:44;;;;;;;18.55;4.40;;;6.60;99.90;;;;;;5005595;28;20120;-62
2022/02/25 12:36:29;;;;;;;18.58;3.97;;;6.80;99.90;;;;;;5003920;28;20415;-61
2022/02/25 12:39:02;;;;;;;19.60;5.15;;;6.90;99.90;;;;;;5008350;28;20017;-62
2022/02/25 12:41:32;;;;;;;15.77;3.42;;;6.80;99.90;;;;;;5009904;28;20499;-62
2022/02/25 12:44:03;;;;;;;16.50;3.20;;;7.00;99.90;;;;;;5010489;28;20022;-61
2022/02/25 12:46:40;;;;;;;16.75;3.63;;;7.00;99.90;;;;;;5010046;28;20411;-61
2022/02/25 12:49:09;;;;;;;16.00;3.38;;;7.00;99.90;;;;;;5012276;28;20030;-61
2022/02/25 12:51:35;;;;;;;13.40;3.58;;;7.20;99.90;;;;;;5007087;28;20026;-61